createdAt,value
2017-12-06T00:04:37.065Z,100053.55
2017-12-06T00:25:12.388Z,100054.00
2017-12-06T00:45:47.376Z,100038.59
2017-12-06T01:06:20.734Z,100039.14
2017-12-06T01:26:56.691Z,100064.48
2017-12-06T01:47:28.891Z,100051.02
2017-12-06T02:08:05.083Z,100038.75
2017-12-06T02:28:42.664Z,100037.92
2017-12-06T02:49:16.550Z,100012.58
2017-12-06T03:09:50.094Z,100002.86
2017-12-06T03:30:26.334Z,99985.03
2017-12-06T03:51:00.216Z,99970.59
2017-12-06T04:11:36.410Z,99959.84
2017-12-06T04:32:10.757Z,99953.95
2017-12-06T04:52:46.030Z,99954.42
2017-12-06T05:13:25.300Z,99949.78
2017-12-06T05:34:00.790Z,99948.27
2017-12-06T05:54:35.835Z,99938.66
2017-12-06T06:33:10.629Z,99933.06
2017-12-06T06:53:47.145Z,99923.58
2017-12-06T07:14:19.946Z,99925.02
2017-12-06T07:34:52.143Z,99936.96
2017-12-06T07:55:27.947Z,99936.17
2017-12-06T08:16:02.685Z,99936.28
2017-12-06T08:36:37.954Z,99929.30
2017-12-06T08:57:15.504Z,99927.80
2017-12-06T09:17:50.344Z,99935.89
2017-12-06T09:38:27.765Z,99938.12
2017-12-06T09:59:03.958Z,99936.57
2017-12-06T10:19:40.476Z,99936.72
2017-12-06T10:40:13.272Z,99909.56
2017-12-06T11:00:49.926Z,99897.95
2017-12-06T11:21:24.146Z,99879.98
2017-12-06T11:41:59.083Z,99850.76
2017-12-06T12:02:36.203Z,99836.53
2017-12-06T12:23:11.165Z,99820.27
2017-12-06T12:43:45.824Z,99799.91
2017-12-06T13:04:18.020Z,99769.03
2017-12-06T13:24:51.143Z,99767.28
2017-12-06T13:45:21.776Z,99752.81
2017-12-06T14:05:58.619Z,99735.88
2017-12-06T14:26:31.737Z,99728.73
2017-12-06T14:47:05.159Z,99735.94
2017-12-06T15:07:45.344Z,99741.94
2017-12-06T15:28:18.837Z,99727.03
2017-12-06T15:48:54.665Z,99727.34
2017-12-06T16:09:25.325Z,99717.83
2017-12-06T16:30:01.213Z,99718.78
2017-12-06T16:50:38.757Z,99700.25
2017-12-06T17:11:11.755Z,99683.14
2017-12-06T17:31:50.100Z,99670.52
2017-12-06T17:52:23.216Z,99646.55
2017-12-06T18:12:58.670Z,99631.45
2017-12-06T18:33:32.892Z,99628.70
2017-12-06T18:54:08.734Z,99634.68
2017-12-06T19:14:43.080Z,99621.28
2017-12-06T19:35:18.351Z,99600.39
2017-12-06T19:55:52.404Z,99596.37
2017-12-06T20:16:27.973Z,99572.61
2017-12-06T20:37:04.449Z,99548.36
2017-12-06T20:57:40.366Z,99530.66
2017-12-06T21:18:15.737Z,99500.89
2017-12-06T21:38:49.679Z,99472.02
2017-12-06T21:59:24.948Z,99447.53
2017-12-06T22:20:04.217Z,99422.30
2017-12-06T22:40:38.258Z,99397.14
2017-12-06T23:01:15.679Z,99361.66
2017-12-06T23:21:50.647Z,99335.00
2017-12-06T23:42:23.147Z,99305.12
